Time;durP1;ratioP1;P1;durP2;ratioP2;P2;SDS_P1;SDS_P2;PMS_P1;PMS_P2;Temp;Humidity;BMP_temperature;BMP_pressure;BME280_temperature;BME280_humidity;BME280_pressure;Samples;Min_cycle;Max_cycle;Signal;HPM_P1;HPM_P2
2022/07/29 00:01:21;;;;;;;3.40;2.63;;;21.30;46.30;;;20.54;42.39;97785.25;5012857;28;20541;-76
2022/07/29 00:03:49;;;;;;;3.43;2.60;;;21.30;46.40;;;20.16;42.77;97719.19;5001317;28;20523;-75
2022/07/29 00:06:16;;;;;;;3.80;2.77;;;21.30;46.30;;;20.52;42.22;97773.75;5017108;28;20492;-75
2022/07/29 00:08:43;;;;;;;3.87;3.30;;;21.20;46.20;;;20.24;42.49;97721.28;5003449;28;20464;-74
2022/07/29 00:11:11;;;;;;;5.10;2.80;;;21.30;46.30;;;20.48;42.68;97769.94;5003857;28;20462;-75
2022/07/29 00:13:38;;;;;;;4.10;3.07;;;21.20;46.30;;;20.47;42.72;97760.09;5002139;28;20508;-74
2022/07/29 00:16:05;;;;;;;3.63;2.77;;;21.20;46.40;;;20.49;42.71;97768.84;4999371;28;20517;-75
2022/07/29 00:18:34;;;;;;;4.53;2.80;;;21.20;46.40;;;20.50;42.54;97762.25;5017920;28;20483;-76
2022/07/29 00:21:01;;;;;;;7.00;3.10;;;21.20;46.30;;;20.42;42.74;97765.63;5003721;28;20967;-79
2022/07/29 00:23:29;;;;;;;2.90;2.70;;;21.20;46.40;;;20.39;42.79;97767.00;5005523;28;20459;-76
2022/07/29 00:25:56;;;;;;;3.67;2.63;;;21.10;46.40;;;20.36;42.83;97751.91;4996687;28;20454;-76
2022/07/29 00:28:23;;;;;;;3.73;2.73;;;21.10;46.40;;;20.36;43.09;97760.16;5002457;28;20468;-79
2022/07/29 00:30:50;;;;;;;3.20;2.70;;;21.10;46.50;;;20.33;42.83;97757.19;5003234;28;20482;-75
2022/07/29 00:33:18;;;;;;;3.53;2.87;;;21.10;46.50;;;20.40;42.73;97752.19;5004070;28;20559;-75
2022/07/29 00:35:46;;;;;;;4.10;2.93;;;21.10;46.30;;;20.42;42.83;97754.66;5008152;28;20861;-76
2022/07/29 00:38:16;;;;;;;3.77;2.53;;;21.10;46.40;;;20.44;42.75;97755.19;5008776;28;20460;-77
2022/07/29 00:40:44;;;;;;;2.90;2.67;;;21.10;46.30;;;20.35;42.71;97744.00;5006151;28;20444;-77
2022/07/29 00:43:12;;;;;;;2.70;2.30;;;21.10;46.30;;;20.38;42.69;97744.22;5006359;28;20970;-77
2022/07/29 00:45:40;;;;;;;2.50;2.30;;;21.10;46.30;;;20.35;42.65;97744.81;5007255;28;20455;-76
2022/07/29 00:48:08;;;;;;;3.33;2.70;;;21.10;46.40;;;20.37;42.81;97736.28;4988282;28;20493;-75
2022/07/29 00:50:36;;;;;;;5.80;3.10;;;21.10;46.40;;;20.30;42.80;97742.09;4994195;28;20465;-74
2022/07/29 00:53:07;;;;;;;3.13;2.50;;;21.10;46.30;;;20.17;42.73;97731.78;4992765;28;20536;-77
2022/07/29 00:55:34;;;;;;;2.93;2.63;;;21.00;46.20;;;20.18;42.98;97749.88;4995915;28;20591;-75
2022/07/29 00:58:02;;;;;;;2.80;2.60;;;21.00;46.50;;;20.26;42.87;97741.03;5004665;28;20471;-76
2022/07/29 01:00:30;;;;;;;4.70;2.73;;;21.00;46.30;;;20.24;42.67;97743.22;4997402;28;20468;-74
2022/07/29 01:02:57;;;;;;;4.03;2.80;;;21.00;46.30;;;20.24;42.64;97740.50;5000568;28;20455;-74
2022/07/29 01:05:27;;;;;;;2.87;2.57;;;21.00;46.30;;;20.16;42.93;97730.16;5001415;28;20475;-75
2022/07/29 01:07:56;;;;;;;3.20;2.70;;;20.90;46.30;;;20.16;43.06;97725.47;5018220;28;20457;-75
2022/07/29 01:10:25;;;;;;;3.07;2.77;;;20.90;46.40;;;20.19;43.05;97718.59;5002856;28;20483;-76
2022/07/29 01:12:55;;;;;;;3.63;2.60;;;20.90;46.40;;;20.28;42.62;97727.88;5022472;28;20517;-77
2022/07/29 01:15:23;;;;;;;7.17;2.80;;;20.90;46.50;;;20.18;43.16;97749.88;5019181;28;20482;-77
2022/07/29 01:17:59;;;;;;;6.10;2.80;;;20.90;46.60;;;20.18;43.16;97760.84;5025104;28;20603;-79
2022/07/29 01:20:42;;;;;;;5.20;3.17;;;20.90;46.70;;;20.26;43.11;97760.25;5020560;28;20477;-75
2022/07/29 01:23:35;;;;;;;6.37;2.70;;;20.90;46.60;;;20.27;43.45;97769.28;5008273;28;20447;-72
2022/07/29 01:26:36;;;;;;;4.10;3.30;;;20.90;46.70;;;19.84;43.12;97718.53;5004722;28;21021;-78
2022/07/29 01:29:12;;;;;;;3.00;2.80;;;20.90;46.60;;;20.15;43.86;97761.41;5003093;28;20513;-74
2022/07/29 01:31:45;;;;;;;4.60;2.90;;;20.90;46.90;;;20.15;43.82;97761.41;5004227;28;20530;-74
2022/07/29 01:34:22;;;;;;;2.90;2.63;;;20.90;47.00;;;19.94;44.16;97764.25;5000201;28;20522;-74
2022/07/29 01:36:57;;;;;;;6.63;2.93;;;20.70;46.90;;;19.98;44.43;97750.81;5004164;28;20542;-74
2022/07/29 01:39:31;;;;;;;2.80;2.60;;;20.70;47.10;;;19.92;44.41;97744.53;5005090;28;20454;-74
2022/07/29 01:42:16;;;;;;;8.03;3.17;;;20.70;47.30;;;19.77;44.65;97751.72;5005145;28;20487;-76
2022/07/29 01:44:55;;;;;;;3.80;2.73;;;20.60;47.30;;;19.58;45.18;97754.31;5007229;28;20548;-75
2022/07/29 01:47:32;;;;;;;4.80;3.20;;;20.40;47.40;;;19.71;45.06;97741.91;5005686;28;20459;-74
2022/07/29 01:50:02;;;;;;;6.00;2.70;;;20.40;47.70;;;19.81;44.47;97758.31;5004210;28;20508;-76
2022/07/29 01:52:37;;;;;;;3.27;2.60;;;20.50;47.30;;;19.58;44.83;97748.00;5000104;28;20470;-75
2022/07/29 01:55:11;;;;;;;3.63;3.00;;;20.40;47.30;;;19.54;45.21;97748.56;5002339;28;20451;-75
2022/07/29 01:57:41;;;;;;;4.07;3.67;;;20.30;47.40;;;19.57;45.26;97740.88;4999635;28;21049;-75
2022/07/29 02:00:12;;;;;;;4.07;2.67;;;20.30;47.60;;;19.51;45.12;97738.16;4996536;28;20813;-76
2022/07/29 02:02:42;;;;;;;2.57;2.37;;;20.30;47.60;;;19.35;45.62;97742.06;5000749;28;20475;-78
2022/07/29 02:05:13;;;;;;;3.50;3.10;;;20.10;47.50;;;19.27;45.88;97743.47;5001949;28;20459;-75
2022/07/29 02:07:43;;;;;;;5.93;3.00;;;20.00;47.70;;;18.78;45.78;97668.31;4996174;28;20456;-76
2022/07/29 02:10:13;;;;;;;3.27;2.90;;;20.00;47.80;;;19.31;45.25;97728.13;5016539;28;20943;-74
2022/07/29 02:12:42;;;;;;;2.97;2.70;;;20.00;47.60;;;19.37;45.33;97735.19;4999770;28;20459;-75
2022/07/29 02:15:12;;;;;;;5.07;3.20;;;20.00;47.70;;;19.12;45.33;97692.31;5000505;28;20938;-76
2022/07/29 02:17:45;;;;;;;4.63;3.00;;;20.10;47.70;;;19.35;45.45;97729.19;4999232;28;20476;-75
2022/07/29 02:20:13;;;;;;;5.67;3.57;;;20.10;47.70;;;19.47;45.57;97730.78;5000554;28;20556;-73
2022/07/29 02:22:42;;;;;;;3.40;2.60;;;20.10;47.80;;;19.42;45.63;97730.81;5001121;28;20479;-74
2022/07/29 02:25:11;;;;;;;5.67;3.00;;;20.10;47.70;;;19.40;45.61;97728.34;5003349;28;20978;-74
2022/07/29 02:27:40;;;;;;;5.40;2.87;;;20.10;47.70;;;19.18;46.12;97737.72;4999694;28;20471;-76
2022/07/29 02:30:11;;;;;;;5.60;3.20;;;20.00;47.70;;;19.27;45.70;97726.22;5004851;28;21093;-76
2022/07/29 02:32:42;;;;;;;3.20;2.93;;;20.00;47.80;;;19.29;45.55;97734.97;5005968;28;20888;-78
2022/07/29 02:35:11;;;;;;;5.50;2.73;;;20.00;47.70;;;19.18;45.49;97724.03;5004763;28;20467;-75
2022/07/29 02:37:38;;;;;;;3.30;2.67;;;20.00;47.50;;;19.24;45.56;97733.88;5000945;28;20519;-76
2022/07/29 02:40:10;;;;;;;3.00;2.70;;;20.00;47.80;;;19.22;45.49;97727.88;5007214;28;20455;-73
2022/07/29 02:42:38;;;;;;;3.90;3.00;;;20.00;48.10;;;19.15;45.91;97724.59;5004555;28;20553;-74
2022/07/29 02:45:07;;;;;;;3.77;2.93;;;20.00;47.80;;;19.25;45.41;97721.84;5021452;28;20910;-77
2022/07/29 02:47:41;;;;;;;3.07;2.73;;;20.00;47.60;;;19.24;45.80;97728.41;5002710;28;20454;-75
2022/07/29 02:50:14;;;;;;;4.03;2.90;;;20.00;47.80;;;19.13;46.00;97721.31;5018519;28;20459;-75
2022/07/29 02:52:46;;;;;;;7.03;3.10;;;20.00;48.10;;;18.85;46.77;97729.03;5005767;28;20471;-74
2022/07/29 02:55:20;;;;;;;6.70;3.00;;;19.70;47.90;;;19.01;46.24;97731.75;5004254;28;20470;-75
2022/07/29 02:57:52;;;;;;;4.67;2.77;;;19.60;48.00;;;19.11;45.88;97734.47;5001493;28;20494;-74
2022/07/29 03:00:19;;;;;;;3.90;3.20;;;19.80;47.90;;;19.11;45.46;97732.56;5006598;28;20478;-76
2022/07/29 03:02:53;;;;;;;7.63;2.83;;;19.80;47.60;;;19.15;45.70;97732.81;5010531;28;20611;-72
2022/07/29 03:05:23;;;;;;;8.20;2.80;;;19.90;47.60;;;19.15;45.47;97735.53;5002830;28;20452;-74
2022/07/29 03:07:56;;;;;;;7.80;3.17;;;19.90;47.50;;;19.06;45.81;97735.31;4998258;28;20492;-73
2022/07/29 03:10:25;;;;;;;3.03;2.73;;;19.90;47.60;;;19.05;46.02;97739.13;5008372;28;20493;-73
2022/07/29 03:12:53;;;;;;;3.37;2.90;;;19.90;47.90;;;18.89;46.09;97741.06;5022620;28;20469;-75
2022/07/29 03:15:22;;;;;;;7.20;2.90;;;19.70;47.80;;;18.96;46.21;97741.59;4992717;28;20524;-75
2022/07/29 03:17:51;;;;;;;5.20;2.80;;;19.70;47.90;;;19.00;46.33;97732.84;5007993;28;21029;-78
2022/07/29 03:20:18;;;;;;;4.60;2.80;;;19.80;48.00;;;18.72;46.49;97708.53;5017454;28;20463;-73
2022/07/29 03:22:46;;;;;;;4.50;2.70;;;19.70;48.10;;;18.74;46.80;97730.16;4997280;28;20553;-76
2022/07/29 03:25:15;;;;;;;2.87;2.60;;;19.60;48.30;;;18.80;46.65;97740.81;5003824;28;20459;-76
2022/07/29 03:27:44;;;;;;;6.20;3.07;;;19.60;48.20;;;18.88;46.03;97723.03;4993422;28;20449;-75
2022/07/29 03:30:13;;;;;;;3.00;2.70;;;19.70;48.00;;;18.94;46.27;97740.22;4998869;28;20458;-75
2022/07/29 03:32:42;;;;;;;3.23;2.93;;;19.70;48.00;;;18.91;46.38;97730.66;5005094;28;20996;-74
2022/07/29 03:35:11;;;;;;;3.57;2.67;;;19.70;48.00;;;18.91;46.03;97738.03;5007146;28;20455;-74
2022/07/29 03:37:38;;;;;;;3.73;2.30;;;19.70;47.80;;;18.93;46.00;97733.13;5014069;28;20533;-78
2022/07/29 03:40:10;;;;;;;3.73;2.70;;;19.60;47.70;;;18.96;45.89;97736.13;5014190;28;20451;-72
2022/07/29 03:42:40;;;;;;;2.70;2.50;;;19.70;47.80;;;19.03;45.41;97735.88;5013186;28;20490;-72
2022/07/29 03:45:12;;;;;;;5.00;3.00;;;19.80;47.70;;;18.88;45.67;97736.72;5026599;28;20455;-73
2022/07/29 03:47:46;;;;;;;4.03;2.80;;;19.70;47.60;;;18.68;45.96;97694.56;5019577;28;20479;-72
2022/07/29 03:50:16;;;;;;;3.73;2.67;;;19.70;47.60;;;18.92;45.84;97737.78;5007046;28;20471;-81
2022/07/29 03:52:44;;;;;;;5.70;2.53;;;19.70;47.60;;;18.91;45.77;97729.84;5003373;28;20452;-73
2022/07/29 03:55:11;;;;;;;3.60;3.03;;;19.70;47.80;;;18.87;45.83;97729.56;5002512;28;20450;-75
2022/07/29 03:57:41;;;;;;;3.43;2.67;;;19.60;47.90;;;18.82;46.00;97724.94;5005667;28;20995;-74
2022/07/29 04:00:10;;;;;;;2.97;2.53;;;19.60;47.70;;;18.86;45.81;97733.41;5009768;28;20513;-73
2022/07/29 04:02:39;;;;;;;4.37;2.57;;;19.70;47.70;;;18.84;45.94;97738.34;5004380;28;20494;-74
2022/07/29 04:05:12;;;;;;;4.00;2.70;;;19.70;47.70;;;18.53;45.96;97686.41;5002803;28;20464;-73
2022/07/29 04:07:41;;;;;;;3.57;3.00;;;19.60;47.60;;;18.80;46.16;97742.72;4999629;28;20474;-73
2022/07/29 04:10:08;;;;;;;3.33;2.80;;;19.60;47.70;;;18.74;46.12;97741.91;5001332;28;20467;-74
2022/07/29 04:12:36;;;;;;;4.83;2.90;;;19.50;47.70;;;18.79;46.06;97741.88;4998537;28;20549;-81
2022/07/29 04:15:04;;;;;;;4.27;2.93;;;19.50;47.80;;;18.74;46.12;97738.38;4999677;28;20462;-75
2022/07/29 04:17:32;;;;;;;4.57;2.37;;;19.50;47.70;;;18.73;45.94;97744.91;5003801;28;21261;-74
2022/07/29 04:19:59;;;;;;;4.53;2.70;;;19.50;47.60;;;18.80;46.02;97742.72;5006646;28;20463;-73
2022/07/29 04:22:26;;;;;;;3.63;2.80;;;19.60;47.70;;;18.78;46.10;97744.91;4999506;28;20470;-77
2022/07/29 04:24:55;;;;;;;4.17;2.70;;;19.50;47.70;;;18.85;45.96;97748.19;5002031;28;20625;-77
2022/07/29 04:27:22;;;;;;;6.83;3.20;;;19.60;47.80;;;18.71;46.45;97734.25;5003000;28;20988;-74
2022/07/29 04:29:49;;;;;;;3.10;2.73;;;19.60;47.90;;;18.79;46.24;97747.38;5004699;28;20465;-74
2022/07/29 04:32:16;;;;;;;3.90;3.00;;;19.60;47.80;;;18.79;46.11;97750.09;5006635;28;20470;-76
2022/07/29 04:34:46;;;;;;;3.60;3.30;;;19.60;47.80;;;18.76;46.39;97755.31;5007130;28;20451;-73
2022/07/29 04:37:13;;;;;;;2.93;2.70;;;19.60;47.80;;;18.82;46.06;97762.41;5002671;28;22504;-74
2022/07/29 04:39:43;;;;;;;3.17;2.80;;;19.60;47.80;;;18.79;46.12;97771.19;5004726;28;20459;-78
2022/07/29 04:42:11;;;;;;;3.47;2.80;;;19.60;47.90;;;18.80;46.76;97761.88;5001943;28;20479;-78
2022/07/29 04:44:39;;;;;;;4.30;3.13;;;19.50;48.00;;;18.78;46.84;97748.47;4997247;28;20494;-78
2022/07/29 04:47:09;;;;;;;3.73;2.93;;;19.60;48.40;;;19.02;46.97;97768.97;5009008;28;20459;-79
2022/07/29 04:49:39;;;;;;;5.10;2.67;;;19.60;48.50;;;19.13;46.60;97770.59;5004239;28;20455;-80
2022/07/29 04:52:07;;;;;;;3.53;2.83;;;19.80;48.90;;;19.27;46.44;97776.34;4999469;28;20487;-80
2022/07/29 04:54:34;;;;;;;5.20;2.90;;;19.90;48.60;;;19.45;45.71;97772.16;5003806;28;20462;-80
2022/07/29 04:57:02;;;;;;;6.13;3.70;;;20.10;48.70;;;19.34;45.38;97765.09;4998239;28;20540;-82
2022/07/29 04:59:30;;;;;;;3.17;2.87;;;20.10;48.10;;;19.52;46.45;97775.41;4998779;28;20565;-78
2022/07/29 05:01:57;;;;;;;12.43;3.30;;;20.20;48.80;;;19.68;45.47;97764.41;5000390;28;20454;-81
2022/07/29 05:04:25;;;;;;;6.03;3.00;;;20.30;48.40;;;19.90;45.36;97771.41;5000499;28;20940;-80
2022/07/29 05:06:52;;;;;;;8.20;2.73;;;20.50;48.60;;;20.12;44.39;97783.94;5001328;28;20471;-80
2022/07/29 05:09:20;;;;;;;3.97;3.30;;;20.80;48.00;;;20.15;43.87;97784.16;5017059;28;20558;-80
2022/07/29 05:11:57;;;;;;;6.63;3.23;;;20.80;47.60;;;20.07;44.05;97780.09;5080885;27;20777;-80
2022/07/29 05:14:24;;;;;;;5.20;3.00;;;20.80;47.60;;;19.90;44.55;97776.88;5077652;28;20460;-79
2022/07/29 05:16:52;;;;;;;5.63;3.00;;;20.70;47.60;;;19.98;44.49;97780.97;5075201;28;20490;-83
2022/07/29 05:19:19;;;;;;;4.70;3.53;;;20.70;47.90;;;20.49;43.73;97788.03;5084317;28;20463;-78
2022/07/29 05:21:47;;;;;;;3.13;2.83;;;21.10;47.70;;;21.17;42.19;97780.88;5078004;28;20448;-80
2022/07/29 05:24:15;;;;;;;3.73;2.50;;;21.80;47.20;;;22.04;39.94;97775.44;5077030;28;20467;-79
2022/07/29 05:26:42;;;;;;;4.30;2.83;;;22.70;46.40;;;23.11;38.13;97775.94;5082878;28;20487;-72
2022/07/29 05:29:11;;;;;;;6.70;3.27;;;23.80;46.00;;;23.82;36.75;97779.53;5077287;28;20466;-76
2022/07/29 05:31:38;;;;;;;2.87;2.57;;;24.60;45.30;;;23.92;36.69;97782.88;5073873;28;20551;-74
2022/07/29 05:34:05;;;;;;;9.20;2.93;;;25.10;45.00;;;24.02;36.43;97779.13;5084727;28;20457;-72
2022/07/29 05:36:32;;;;;;;5.27;3.20;;;25.20;45.00;;;23.94;36.11;97781.75;5098470;28;20682;-75
2022/07/29 05:38:59;;;;;;;4.70;3.30;;;25.30;44.50;;;23.84;36.35;97777.28;5075245;28;20453;-80
2022/07/29 05:41:27;;;;;;;6.40;2.80;;;25.40;44.50;;;23.87;37.06;97782.19;5080746;28;20460;-77
2022/07/29 05:43:54;;;;;;;7.50;4.57;;;25.20;44.80;;;24.86;34.87;97769.69;5078030;28;21425;-79
2022/07/29 05:46:23;;;;;;;8.37;3.83;;;25.90;44.40;;;24.38;35.93;97774.72;5107729;27;20454;-79
2022/07/29 05:48:50;;;;;;;9.33;3.60;;;26.00;44.20;;;23.84;36.41;97782.81;5093282;28;20453;-78
2022/07/29 05:51:17;;;;;;;5.03;3.10;;;25.50;44.20;;;23.85;36.46;97774.22;5102577;28;20552;-76
2022/07/29 05:53:44;;;;;;;4.00;3.13;;;25.40;44.20;;;24.23;36.32;97784.19;5098926;28;20458;-75
2022/07/29 05:56:12;;;;;;;5.40;3.10;;;25.70;44.50;;;25.14;34.76;97783.34;5085245;28;20465;-80
2022/07/29 05:58:39;;;;;;;6.27;3.03;;;26.30;44.10;;;26.08;33.06;97787.09;5076034;28;20464;-78
2022/07/29 06:01:06;;;;;;;3.53;3.20;;;26.90;43.90;;;26.07;33.41;97779.94;5076971;28;20459;-79
2022/07/29 06:03:37;;;;;;;5.27;3.40;;;27.40;43.50;;;26.62;32.53;97778.47;5078395;28;20462;-78
2022/07/29 06:06:05;;;;;;;6.43;3.20;;;27.70;43.40;;;25.48;34.39;97781.06;5071043;28;20545;-75
2022/07/29 06:08:33;;;;;;;7.33;4.00;;;27.30;43.50;;;25.00;35.15;97777.94;5080712;28;20972;-79
2022/07/29 06:11:00;;;;;;;4.83;3.20;;;26.80;43.90;;;25.15;35.80;97777.50;5076197;28;20953;-77
2022/07/29 06:13:27;;;;;;;4.80;3.07;;;26.50;44.30;;;26.02;34.41;97787.25;5076132;28;20461;-79
2022/07/29 06:15:55;;;;;;;4.00;3.30;;;26.90;44.40;;;26.42;33.46;97782.72;5074149;28;20553;-78
2022/07/29 06:18:23;;;;;;;4.87;3.73;;;27.60;43.80;;;25.91;34.58;97783.16;5111594;28;20479;-79
2022/07/29 06:20:52;;;;;;;3.73;3.40;;;27.30;43.80;;;24.32;37.05;97787.81;5081444;28;20538;-80
2022/07/29 06:23:20;;;;;;;6.20;3.30;;;26.10;44.60;;;23.80;38.56;97784.56;5065078;28;20489;-82
2022/07/29 06:25:48;;;;;;;5.30;3.40;;;25.20;45.60;;;23.14;40.13;97782.78;5073871;28;20470;-80
2022/07/29 06:28:15;;;;;;;3.80;3.20;;;24.30;46.20;;;22.70;41.08;97784.94;5067248;28;20449;-80
2022/07/29 06:30:42;;;;;;;5.77;4.03;;;23.70;46.60;;;22.23;41.79;97727.88;5070899;28;20894;-78
2022/07/29 06:33:09;;;;;;;7.40;3.60;;;23.50;47.10;;;22.52;41.78;97778.34;5090005;28;20542;-77
2022/07/29 06:35:38;;;;;;;4.90;3.87;;;23.30;47.40;;;22.58;41.88;97772.44;5059455;28;20945;-80
2022/07/29 06:38:09;;;;;;;4.93;4.07;;;23.30;47.60;;;22.43;42.43;97776.22;5084217;28;21124;-76
2022/07/29 06:43:21;;;;;;;5.97;3.90;;;23.20;47.90;;;22.27;42.69;97772.91;5057341;28;20484;-74
2022/07/29 06:45:48;;;;;;;4.00;3.40;;;23.10;47.90;;;22.72;42.17;97771.69;5059977;28;20558;-78
2022/07/29 06:48:16;;;;;;;4.23;3.43;;;23.30;48.00;;;22.76;41.96;97773.53;5062949;28;20500;-77
2022/07/29 06:50:43;;;;;;;6.43;4.30;;;23.40;47.90;;;22.99;41.56;97778.38;5062091;28;21006;-75
2022/07/29 06:53:12;;;;;;;5.40;3.67;;;23.60;47.90;;;23.04;41.69;97778.28;5054513;28;20524;-77
2022/07/29 06:55:39;;;;;;;4.53;3.40;;;23.80;48.00;;;22.91;42.06;97777.94;5063940;28;22387;-78
2022/07/29 06:58:07;;;;;;;7.83;3.57;;;23.60;48.00;;;22.93;41.90;97794.19;5061697;28;20462;-76
2022/07/29 07:00:34;;;;;;;4.83;3.73;;;23.70;48.00;;;23.19;41.66;97785.44;5065746;28;20508;-80
2022/07/29 07:03:02;;;;;;;5.00;3.70;;;23.80;48.00;;;23.30;41.51;97783.34;5064833;28;20993;-80
2022/07/29 07:05:29;;;;;;;4.53;3.97;;;23.90;48.00;;;23.45;41.21;97783.06;5060368;28;20495;-75
2022/07/29 07:07:57;;;;;;;6.67;4.07;;;24.10;48.10;;;23.34;41.27;97789.88;5063671;28;20456;-80
2022/07/29 07:10:25;;;;;;;4.20;3.90;;;24.20;47.90;;;23.81;40.95;97787.00;5061808;28;20961;-79
2022/07/29 07:12:53;;;;;;;7.47;3.77;;;24.30;48.10;;;23.62;40.85;97748.53;5062098;28;20494;-81
2022/07/29 07:15:21;;;;;;;6.37;3.80;;;24.40;48.00;;;23.90;40.68;97787.09;5090938;27;20544;-78
2022/07/29 07:17:49;;;;;;;4.20;3.80;;;24.60;48.10;;;23.97;40.39;97776.44;5063426;28;20477;-77
2022/07/29 07:20:17;;;;;;;5.87;3.67;;;24.60;47.90;;;23.86;40.73;97786.91;5064903;28;20476;-78
2022/07/29 07:22:44;;;;;;;6.77;3.70;;;24.60;47.90;;;23.46;41.58;97779.16;5060378;28;20459;-77
2022/07/29 07:25:14;;;;;;;6.27;4.10;;;24.40;48.00;;;23.52;41.60;97781.81;5062815;28;20518;-77
2022/07/29 07:27:43;;;;;;;6.17;4.33;;;24.20;48.20;;;23.73;41.17;97780.28;5063683;28;20459;-73
2022/07/29 07:30:12;;;;;;;4.43;3.83;;;24.30;48.20;;;24.26;40.70;97782.72;5060646;28;20477;-77
2022/07/29 07:32:39;;;;;;;4.00;3.70;;;24.70;48.30;;;24.39;39.96;97787.38;5059963;28;20493;-76
2022/07/29 07:35:09;;;;;;;5.60;4.40;;;25.00;48.10;;;24.47;39.95;97772.84;5065205;28;20460;-79
2022/07/29 07:37:36;;;;;;;3.60;3.30;;;25.20;48.10;;;24.32;40.58;97775.97;5055900;28;20459;-78
2022/07/29 07:40:06;;;;;;;6.77;3.83;;;25.20;48.10;;;24.02;41.02;97781.03;5050288;28;20529;-79
2022/07/29 07:42:33;;;;;;;4.30;3.57;;;24.80;48.10;;;24.38;40.49;97765.63;5060061;28;20460;-80
2022/07/29 07:45:01;;;;;;;4.40;4.00;;;24.90;48.30;;;24.71;40.12;97766.16;5059380;28;20551;-79
2022/07/29 07:47:29;;;;;;;4.50;3.20;;;25.20;48.20;;;24.83;39.76;97773.09;5060413;28;20502;-78
2022/07/29 07:49:56;;;;;;;4.93;4.03;;;25.40;47.90;;;25.31;38.94;97772.38;5062684;28;20463;-79
2022/07/29 07:52:23;;;;;;;6.70;5.90;;;25.80;47.90;;;25.15;39.17;97773.91;5058185;28;20554;-74
2022/07/29 07:54:51;;;;;;;4.23;3.83;;;25.80;47.90;;;25.39;39.10;97775.50;5061539;28;20832;-78
2022/07/29 07:57:18;;;;;;;5.20;4.30;;;25.90;47.70;;;25.83;37.90;97773.72;5060240;28;20542;-79
2022/07/29 07:59:45;;;;;;;9.00;3.97;;;26.30;47.50;;;25.54;38.67;97768.75;5057164;28;20821;-77
2022/07/29 08:02:14;;;;;;;4.60;4.20;;;26.30;47.40;;;25.30;38.75;97765.22;5078394;28;20535;-79
2022/07/29 08:04:42;;;;;;;4.93;3.73;;;26.00;47.40;;;25.42;38.87;97772.09;5060561;28;20455;-77
2022/07/29 08:07:10;;;;;;;6.17;4.00;;;26.00;47.70;;;25.29;39.05;97769.09;5062783;28;20453;-78
2022/07/29 08:09:37;;;;;;;5.07;4.07;;;25.90;47.70;;;25.30;39.32;97767.19;5057204;28;20455;-79
2022/07/29 08:12:05;;;;;;;8.47;4.10;;;25.90;47.90;;;25.32;39.50;97756.59;5083746;28;20460;-74
2022/07/29 08:14:34;;;;;;;5.60;3.73;;;25.90;48.00;;;25.72;38.83;97764.91;5085867;28;20468;-73
2022/07/29 08:17:01;;;;;;;7.90;4.13;;;26.20;47.90;;;25.54;38.99;97763.22;5085673;28;20460;-77
2022/07/29 08:19:30;;;;;;;7.60;4.37;;;26.20;47.90;;;25.92;38.70;97762.66;5084662;28;20543;-77
2022/07/29 08:21:57;;;;;;;8.63;4.17;;;26.40;47.80;;;25.94;37.86;97759.56;5067765;28;20466;-80
2022/07/29 08:27:09;;;;;;;6.10;4.70;;;26.70;47.50;;;26.32;38.03;97769.22;5066365;28;20460;-78
2022/07/29 08:29:37;;;;;;;4.30;3.87;;;26.70;47.60;;;26.23;37.99;97761.72;5080486;28;20462;-74
2022/07/29 08:32:05;;;;;;;5.07;4.47;;;26.80;47.70;;;26.58;37.51;97767.25;5062356;28;20615;-76
2022/07/29 08:34:34;;;;;;;5.27;4.77;;;27.00;47.40;;;26.46;38.28;97753.22;5060376;28;20481;-74
2022/07/29 08:37:02;;;;;;;4.23;3.90;;;27.10;47.60;;;26.77;37.00;97759.72;5060024;28;20464;-73
2022/07/29 08:39:29;;;;;;;4.00;3.70;;;27.20;47.40;;;26.67;37.77;97758.13;5059726;28;21000;-75
2022/07/29 08:41:56;;;;;;;4.07;3.70;;;27.30;47.50;;;26.03;38.42;97766.75;5063151;28;20460;-75
2022/07/29 08:44:25;;;;;;;5.97;4.60;;;26.90;47.60;;;26.49;37.67;97754.53;5091339;27;20461;-75
2022/07/29 08:46:52;;;;;;;5.07;3.90;;;27.10;47.70;;;26.33;37.78;97752.28;5059973;28;20224;-73
2022/07/29 08:49:20;;;;;;;6.67;4.73;;;27.00;47.40;;;26.51;37.63;97757.81;5074795;28;20470;-73
2022/07/29 08:51:48;;;;;;;5.77;4.70;;;27.10;47.60;;;26.65;37.49;97755.66;5050834;28;20484;-76
2022/07/29 08:54:19;;;;;;;4.40;4.00;;;27.20;47.40;;;26.93;37.07;97755.31;5057942;28;20442;-75
2022/07/29 08:56:51;;;;;;;6.27;4.30;;;27.60;47.60;;;27.08;36.58;97756.75;5060076;28;20543;-75
2022/07/29 08:59:21;;;;;;;6.00;4.13;;;27.60;47.20;;;26.69;37.13;97753.06;5067196;28;20464;-72
2022/07/29 09:01:51;;;;;;;6.17;4.23;;;27.40;47.00;;;26.51;37.50;97755.84;5060586;28;20464;-75
2022/07/29 09:04:20;;;;;;;7.17;4.10;;;27.40;47.10;;;27.05;36.52;97751.84;5057866;28;20460;-74
2022/07/29 09:06:53;;;;;;;4.53;4.23;;;27.60;47.10;;;26.86;36.96;97746.69;5063550;28;20487;-76
2022/07/29 09:09:20;;;;;;;7.80;5.50;;;27.70;46.90;;;27.38;36.25;97742.09;5058743;28;20464;-76
2022/07/29 09:11:48;;;;;;;5.10;4.77;;;27.70;47.30;;;27.88;35.41;97743.31;5072723;28;21129;-74
2022/07/29 09:14:15;;;;;;;4.67;4.20;;;28.30;46.90;;;28.30;34.80;97748.06;5061417;28;20465;-74
2022/07/29 09:16:52;;;;;;;5.20;4.70;;;28.70;46.70;;;29.07;33.56;97744.06;5057356;28;20460;-74
2022/07/29 09:19:32;;;;;;;4.70;4.40;;;29.30;46.40;;;29.49;33.22;97745.03;5094480;28;20460;-76
2022/07/29 09:22:03;;;;;;;5.20;3.90;;;29.80;46.20;;;29.32;33.36;97741.28;5057113;28;20451;-76
2022/07/29 09:24:42;;;;;;;4.50;4.10;;;29.90;46.00;;;29.21;33.37;97745.72;5093847;28;20976;-75
2022/07/29 09:27:19;;;;;;;4.63;4.23;;;29.80;46.00;;;29.19;33.37;97742.44;5059171;28;20529;-73
2022/07/29 09:29:47;;;;;;;5.50;4.70;;;29.70;45.80;;;28.27;35.29;97732.09;5058932;28;20543;-76
2022/07/29 09:32:14;;;;;;;5.67;5.17;;;29.20;46.20;;;28.87;34.13;97734.66;5059686;28;20472;-75
2022/07/29 09:34:41;;;;;;;5.30;4.83;;;29.30;46.30;;;28.60;34.46;97730.50;5095842;28;20452;-76
2022/07/29 09:37:11;;;;;;;5.10;4.63;;;29.40;46.30;;;28.88;33.96;97725.16;5061382;28;20464;-77
2022/07/29 09:39:45;;;;;;;5.17;4.67;;;29.40;46.10;;;28.73;34.30;97734.91;5063582;28;20452;-77
2022/07/29 09:42:13;;;;;;;4.80;4.30;;;29.50;46.10;;;28.88;34.28;97721.53;5063101;28;20521;-77
2022/07/29 09:44:47;;;;;;;4.50;4.10;;;29.50;46.30;;;28.95;33.41;97721.81;5068907;28;20456;-77
2022/07/29 09:47:16;;;;;;;4.37;3.97;;;29.40;45.50;;;29.42;31.61;97717.81;5061268;28;20553;-76
2022/07/29 09:49:57;;;;;;;5.07;3.80;;;29.80;45.10;;;29.44;31.82;97720.25;5064573;28;20468;-75
2022/07/29 09:52:26;;;;;;;4.17;3.77;;;29.90;44.70;;;29.69;31.51;97718.25;5067421;28;20476;-73
2022/07/29 09:54:54;;;;;;;4.17;3.80;;;30.10;44.50;;;29.96;31.25;97725.06;5066191;28;20448;-75
2022/07/29 09:57:28;;;;;;;4.20;3.87;;;30.40;44.50;;;29.87;30.98;97720.75;5065028;28;20961;-74
2022/07/29 10:00:01;;;;;;;4.17;3.87;;;30.30;44.50;;;30.35;30.38;97729.34;5067024;28;20458;-75
2022/07/29 10:02:31;;;;;;;4.70;4.10;;;30.70;44.50;;;29.91;31.43;97728.06;5060169;28;20507;-75
2022/07/29 10:05:01;;;;;;;5.57;5.03;;;30.60;44.60;;;30.34;30.83;97728.56;5060543;28;20463;-73
2022/07/29 10:07:46;;;;;;;5.73;4.60;;;30.90;44.40;;;30.64;30.68;97728.22;5063639;28;20860;-75
2022/07/29 10:10:22;;;;;;;4.47;4.07;;;31.00;44.50;;;30.76;30.30;97721.75;5061921;28;20556;-75
2022/07/29 10:12:53;;;;;;;4.77;4.37;;;31.00;44.50;;;30.86;30.18;97720.41;5063097;28;20471;-73
2022/07/29 10:15:22;;;;;;;6.50;4.17;;;31.20;44.60;;;30.06;31.33;97725.72;5061144;28;20526;-76
2022/07/29 10:17:51;;;;;;;4.60;4.30;;;30.70;44.50;;;29.05;33.30;97721.38;5062201;28;20501;-77
2022/07/29 10:20:19;;;;;;;5.53;4.47;;;30.00;45.00;;;29.08;33.27;97723.44;5062191;28;21120;-75
2022/07/29 10:22:49;;;;;;;5.83;4.63;;;29.80;45.50;;;28.60;34.16;97717.41;5065953;28;20457;-76
2022/07/29 10:25:17;;;;;;;4.43;4.13;;;29.30;45.40;;;28.93;33.94;97724.91;5066283;28;21000;-76
2022/07/29 10:27:46;;;;;;;4.83;4.20;;;29.30;45.80;;;29.27;33.74;97722.06;5066239;28;20551;-82
2022/07/29 10:30:15;;;;;;;4.60;4.30;;;29.50;45.80;;;29.15;33.98;97722.06;5068521;28;20453;-78
2022/07/29 10:33:18;;;;;;;5.60;4.93;;;29.70;45.90;;;29.04;34.54;97716.97;5066700;28;20476;-81
2022/07/29 10:36:11;;;;;;;6.00;4.80;;;29.50;46.20;;;29.11;34.24;97694.94;5064193;28;20774;-79